Portada
METAR-TAF:

METAR-TAF

Aeroports :

Concord, Nova Hampshire, Estats Units d'Amèrica

latitud: 43-11-43N, longitud: 071-30-04W, altitud: 105 m

Observació

L'informe es va fer fa 25 minuts, a les 03:51 UTC
Vent calma
Temperatura -5°C
Humitat 86%
Pressió 1024 hPa
Visibilitat: 16.1 km
Cel clar

METAR: KCON 310351Z AUTO 00000KT 10SM CLR M05/M07 A3023 RMK AO2 SLP244 I1000 T10501072

Hora: 00:16 (04:16 UTC)

Pronòstic

L'informe es va fer fa 4 hores i 56 minuts, a les 23:20 UTC
Pronòstic vàlid del 31 a les 00 UTC al 31 a les 24 UTC
Vent 4 kt amb direcció variable
Visibilitat: 10 km
Escasses núvols a una alçada de 25000 ft
A partir de les 31 a les 1800 UTC
Vent 5 kt del Sud/Sud-Oest
Visibilitat: 10 km
Cel clar

TAF: KCON 302320Z 3100/3124 VRB04KT P6SM FEW250 FM311800 21005KT P6SM SKC

Observacions i pronòstics meteorològics de més de 4000 aeroports (METAR i TAF).

Les estacions disponibles són els punts grocs i vermells al mapa.

Posi el ratolí al punt desitjat per veure el nom de l'estació.

Feu clic per veure les observacions i els pronòstics meteorològics.

Per canviar el mapa: feu clic els botons verds amb una creu de color negre per apropar; al botó verd amb un guió per allunyar la imatge; o en les fletxes verdes per a mapes adjacents.


METAR-TAF: